createdAt,value
2019-03-03T00:00:51.331Z,96549.80
2019-03-03T00:01:58.492Z,96545.84
2019-03-03T00:03:05.648Z,96550.39
2019-03-03T00:04:12.803Z,96550.84
2019-03-03T00:05:19.974Z,96555.19
2019-03-03T00:06:27.140Z,96554.35
2019-03-03T00:07:34.482Z,96557.40
2019-03-03T00:08:41.709Z,96556.11
2019-03-03T00:09:48.851Z,96553.52
2019-03-03T00:10:57.255Z,96556.56
2019-03-03T00:12:04.495Z,96548.91
2019-03-03T00:13:11.647Z,96549.38
2019-03-03T00:14:18.783Z,96548.91
2019-03-03T00:15:26.813Z,96547.99
2019-03-03T00:16:33.860Z,96547.90
2019-03-03T00:17:41.059Z,96552.14
2019-03-03T00:18:48.226Z,96548.64
2019-03-03T00:19:55.685Z,96550.39
2019-03-03T00:21:02.799Z,96551.68
2019-03-03T00:22:11.554Z,96550.39
2019-03-03T00:23:18.727Z,96548.45
2019-03-03T00:24:25.876Z,96553.16
2019-03-03T00:25:33.035Z,96554.45
2019-03-03T00:26:40.183Z,96546.70
2019-03-03T00:27:47.349Z,96553.89
2019-03-03T00:28:54.512Z,96555.19
2019-03-03T00:30:01.651Z,96554.35
2019-03-03T00:31:08.867Z,96555.64
2019-03-03T00:32:16.014Z,96556.02
2019-03-03T00:33:23.096Z,96554.27
2019-03-03T00:34:30.260Z,96552.05
2019-03-03T00:35:37.441Z,96555.92
2019-03-03T00:37:18.523Z,96554.63
2019-03-03T00:38:53.942Z,96552.05
2019-03-03T00:40:18.633Z,96553.44
2019-03-03T00:41:44.711Z,96548.77
2019-03-03T00:42:57.482Z,96548.67
2019-03-03T00:44:15.501Z,96553.09
2019-03-03T00:45:42.868Z,96549.13
2019-03-03T00:47:00.233Z,96548.67
2019-03-03T00:48:38.759Z,96547.23
2019-03-03T00:50:07.552Z,96542.98
2019-03-03T00:51:33.632Z,96552.20
2019-03-03T00:52:51.597Z,96553.22
2019-03-03T00:54:11.779Z,96542.52
2019-03-03T00:55:26.222Z,96543.81
2019-03-03T00:56:52.275Z,96544.64
2019-03-03T00:58:09.138Z,96545.02
2019-03-03T00:59:27.478Z,96541.05
2019-03-03T01:00:50.920Z,96545.11
2019-03-03T01:02:19.658Z,96545.94
2019-03-03T01:03:40.815Z,96539.83
2019-03-03T01:05:08.854Z,96540.19
2019-03-03T01:06:34.054Z,96542.68
2019-03-03T01:07:54.060Z,96536.23
2019-03-03T01:09:16.600Z,96537.61
2019-03-03T01:10:43.417Z,96539.73
2019-03-03T01:12:10.097Z,96541.95
2019-03-03T01:13:43.398Z,96544.65
2019-03-03T01:15:15.531Z,96542.16
2019-03-03T01:16:39.672Z,96544.38
2019-03-03T01:18:07.734Z,96536.72
2019-03-03T01:19:22.575Z,96541.88
2019-03-03T01:20:37.854Z,96541.52
2019-03-03T01:22:07.986Z,96538.38
2019-03-03T01:23:35.715Z,96540.66
2019-03-03T01:24:55.483Z,96535.03
2019-03-03T01:26:02.647Z,96539.18
2019-03-03T01:27:09.795Z,96537.89
2019-03-03T01:28:16.955Z,96541.11
2019-03-03T01:29:24.129Z,96538.81
2019-03-03T01:30:32.279Z,96533.80
2019-03-03T01:31:39.409Z,96530.30
2019-03-03T01:32:46.563Z,96535.27
2019-03-03T01:33:53.735Z,96533.42
2019-03-03T01:35:00.896Z,96530.66
2019-03-03T01:36:08.057Z,96528.81
2019-03-03T01:37:15.335Z,96521.77
2019-03-03T01:38:22.499Z,96526.37
2019-03-03T01:39:29.663Z,96526.28
2019-03-03T01:40:37.137Z,96524.53
2019-03-03T01:41:44.293Z,96525.36
2019-03-03T01:42:51.453Z,96530.52
2019-03-03T01:43:58.609Z,96527.48
2019-03-03T01:45:07.216Z,96521.02
2019-03-03T01:46:14.368Z,96521.39
2019-03-03T01:47:21.517Z,96528.21
2019-03-03T01:48:28.663Z,96526.00
2019-03-03T01:49:35.823Z,96527.29
2019-03-03T01:50:42.908Z,96523.78
2019-03-03T01:51:50.232Z,96526.73
2019-03-03T01:52:57.380Z,96529.31
2019-03-03T01:54:04.525Z,96527.06
2019-03-03T01:55:12.586Z,96530.48
2019-03-03T01:56:20.706Z,96531.67
2019-03-03T01:57:28.117Z,96531.67
2019-03-03T01:58:35.259Z,96522.73
2019-03-03T01:59:42.950Z,96527.44
2019-03-03T02:00:51.360Z,96528.27
2019-03-03T02:01:58.913Z,96517.47
2019-03-03T02:03:07.582Z,96518.77
2019-03-03T02:04:14.725Z,96519.95
2019-03-03T02:05:21.884Z,96520.78
2019-03-03T02:06:29.042Z,96516.91
2019-03-03T02:07:42.489Z,96514.60
2019-03-03T02:08:56.498Z,96514.60
2019-03-03T02:10:03.708Z,96521.06
2019-03-03T02:11:11.819Z,96514.60
2019-03-03T02:12:18.975Z,96513.77
2019-03-03T02:13:26.064Z,96515.98
2019-03-03T02:14:33.308Z,96515.98
2019-03-03T02:15:40.467Z,96510.45
2019-03-03T02:16:47.695Z,96509.53
2019-03-03T02:17:54.866Z,96517.28
2019-03-03T02:19:02.069Z,96509.16
2019-03-03T02:20:09.716Z,96506.48
2019-03-03T02:21:16.774Z,96506.12
2019-03-03T02:22:23.921Z,96509.53
2019-03-03T02:23:31.019Z,96513.03
2019-03-03T02:24:39.074Z,96505.29
2019-03-03T02:25:46.218Z,96502.34
2019-03-03T02:26:53.390Z,96508.80
2019-03-03T02:28:00.540Z,96501.52
2019-03-03T02:29:08.634Z,96501.97
2019-03-03T02:30:18.810Z,96504.09
2019-03-03T02:31:26.068Z,96504.00
2019-03-03T02:32:33.212Z,96504.00
2019-03-03T02:33:40.394Z,96506.58
2019-03-03T02:34:47.531Z,96509.63
2019-03-03T02:35:54.669Z,96509.53
2019-03-03T02:37:02.795Z,96510.83
2019-03-03T02:38:09.955Z,96506.95
2019-03-03T02:39:19.033Z,96506.58
2019-03-03T02:40:26.181Z,96504.46
2019-03-03T02:41:33.293Z,96504.46
2019-03-03T02:42:40.442Z,96500.59
2019-03-03T02:43:47.694Z,96502.34
2019-03-03T02:44:54.858Z,96504.46
2019-03-03T02:46:02.005Z,96501.87
2019-03-03T02:47:09.155Z,96507.31
2019-03-03T02:48:16.303Z,96503.08
2019-03-03T02:49:23.381Z,96502.98
2019-03-03T02:50:30.553Z,96503.34
2019-03-03T02:51:37.962Z,96503.34
2019-03-03T02:52:45.320Z,96502.87
2019-03-03T02:53:52.465Z,96501.13
2019-03-03T02:54:59.545Z,96502.36
2019-03-03T02:56:06.711Z,96494.52
2019-03-03T02:57:13.925Z,96493.09
2019-03-03T02:58:21.075Z,96492.53
2019-03-03T02:59:28.219Z,96499.36
2019-03-03T03:00:37.056Z,96492.44
2019-03-03T03:01:48.796Z,96493.17
2019-03-03T03:02:57.628Z,96494.00
2019-03-03T03:04:04.888Z,96496.21
2019-03-03T03:05:12.033Z,96493.53
2019-03-03T03:06:25.054Z,96482.94
2019-03-03T03:07:39.146Z,96485.52
2019-03-03T03:09:04.115Z,96485.52
2019-03-03T03:10:31.514Z,96484.32
2019-03-03T03:12:01.046Z,96480.86
2019-03-03T03:13:26.304Z,96477.98
2019-03-03T03:14:55.446Z,96475.39
2019-03-03T03:16:12.047Z,96477.52
2019-03-03T03:17:41.065Z,96474.10
2019-03-03T03:18:56.104Z,96477.05
2019-03-03T03:20:16.698Z,96465.53
2019-03-03T03:21:37.374Z,96468.20
2019-03-03T03:23:15.463Z,96469.59
2019-03-03T03:24:36.186Z,96466.74
2019-03-03T03:26:00.932Z,96464.11
2019-03-03T03:27:28.401Z,96463.75
2019-03-03T03:28:57.230Z,96464.95
2019-03-03T03:30:26.773Z,96469.15
2019-03-03T03:31:43.183Z,96460.77
2019-03-03T03:32:56.691Z,96455.97
2019-03-03T03:34:11.857Z,96458.45
2019-03-03T03:35:30.093Z,96460.94
2019-03-03T03:36:50.105Z,96463.42
2019-03-03T03:38:25.045Z,96462.97
2019-03-03T03:39:58.370Z,96457.44
2019-03-03T03:41:19.299Z,96457.99
2019-03-03T03:42:53.616Z,96451.45
2019-03-03T03:44:09.861Z,96453.58
2019-03-03T03:45:28.413Z,96450.95
2019-03-03T03:47:09.589Z,96452.11
2019-03-03T03:48:51.199Z,96455.52
2019-03-03T03:50:26.277Z,96455.38
2019-03-03T03:51:50.978Z,96454.00
2019-03-03T03:53:09.819Z,96454.92
2019-03-03T03:54:35.883Z,96441.87
2019-03-03T03:56:02.054Z,96440.12
2019-03-03T03:57:34.602Z,96448.93
2019-03-03T03:59:03.814Z,96448.84
2019-03-03T04:00:29.058Z,96450.95
2019-03-03T04:02:07.265Z,96442.75
2019-03-03T04:03:33.744Z,96442.84
2019-03-03T04:04:53.731Z,96450.44
2019-03-03T04:06:22.629Z,96448.42
2019-03-03T04:07:36.121Z,96441.50
2019-03-03T04:09:08.283Z,96443.16
2019-03-03T04:10:25.715Z,96439.99
2019-03-03T04:11:48.450Z,96435.20
2019-03-03T04:13:17.374Z,96434.64
2019-03-03T04:14:46.479Z,96441.83
2019-03-03T04:16:08.841Z,96444.78
2019-03-03T04:17:50.056Z,96442.00
2019-03-03T04:19:05.785Z,96445.41
2019-03-03T04:20:37.871Z,96443.85
2019-03-03T04:22:06.758Z,96430.85
2019-03-03T04:23:26.609Z,96432.14
2019-03-03T04:24:58.562Z,96431.22
2019-03-03T04:26:16.474Z,96432.88
2019-03-03T04:27:36.239Z,96424.77
2019-03-03T04:29:02.297Z,96426.88
2019-03-03T04:30:15.269Z,96428.17
2019-03-03T04:31:50.151Z,96428.17
2019-03-03T04:33:16.214Z,96423.25
2019-03-03T04:34:33.119Z,96426.30
2019-03-03T04:35:49.607Z,96418.55
2019-03-03T04:37:17.054Z,96421.41
2019-03-03T04:38:37.866Z,96420.11
2019-03-03T04:40:03.963Z,96415.27
2019-03-03T04:41:19.126Z,96419.59
2019-03-03T04:42:49.140Z,96412.05
2019-03-03T04:44:13.799Z,96417.11
2019-03-03T04:45:26.735Z,96420.81
2019-03-03T04:47:01.814Z,96418.05
2019-03-03T04:48:18.858Z,96421.83
2019-03-03T04:49:42.746Z,96417.72
2019-03-03T04:51:18.285Z,96421.00
2019-03-03T04:52:44.333Z,96412.89
2019-03-03T04:54:18.179Z,96419.47
2019-03-03T04:55:50.297Z,96413.36
2019-03-03T04:57:34.822Z,96415.33
2019-03-03T04:59:03.643Z,96414.95
2019-03-03T05:00:42.337Z,96417.73
2019-03-03T05:01:55.602Z,96420.31
2019-03-03T05:03:27.914Z,96428.14
2019-03-03T05:04:40.669Z,96424.55
2019-03-03T05:05:54.311Z,96424.09
2019-03-03T05:07:35.589Z,96428.14
2019-03-03T05:08:59.042Z,96432.25
2019-03-03T05:10:25.126Z,96432.47
2019-03-03T05:12:36.733Z,96426.58
2019-03-03T05:13:57.361Z,96421.70
2019-03-03T05:15:21.232Z,96431.23
2019-03-03T05:16:53.344Z,96423.59
2019-03-03T05:18:06.645Z,96427.64
2019-03-03T05:19:32.632Z,96419.99
2019-03-03T05:20:47.529Z,96424.50
2019-03-03T05:21:54.614Z,96426.44
2019-03-03T05:23:01.687Z,96423.63
2019-03-03T05:24:08.853Z,96424.64
2019-03-03T05:25:16.014Z,96426.58
2019-03-03T05:26:23.163Z,96426.75
2019-03-03T05:27:30.304Z,96426.89
2019-03-03T05:28:37.876Z,96430.58
2019-03-03T05:29:45.025Z,96424.86
2019-03-03T05:30:52.221Z,96421.25
2019-03-03T05:31:59.231Z,96424.91
2019-03-03T05:33:06.398Z,96417.89
2019-03-03T05:34:13.547Z,96416.51
2019-03-03T05:35:20.696Z,96420.28
2019-03-03T05:36:27.855Z,96407.74
2019-03-03T05:37:35.042Z,96409.30
2019-03-03T05:38:42.201Z,96413.54
2019-03-03T05:39:49.260Z,96410.03
2019-03-03T05:40:56.448Z,96415.53
2019-03-03T05:42:03.641Z,96412.48
2019-03-03T05:43:10.761Z,96408.15
2019-03-03T05:44:17.861Z,96412.39
2019-03-03T05:45:25.008Z,96412.75
2019-03-03T05:46:32.211Z,96417.00
2019-03-03T05:47:39.285Z,96406.66
2019-03-03T05:48:46.354Z,96411.83
2019-03-03T05:49:53.532Z,96409.61
2019-03-03T05:51:00.748Z,96411.73
2019-03-03T05:52:07.915Z,96412.20
2019-03-03T05:53:15.062Z,96416.06
2019-03-03T05:54:22.285Z,96420.31
2019-03-03T05:55:29.443Z,96410.44
2019-03-03T05:56:36.601Z,96415.14
2019-03-03T05:57:43.626Z,96415.14
2019-03-03T05:58:50.789Z,96410.80
2019-03-03T05:59:57.951Z,96412.09
2019-03-03T06:01:05.212Z,96402.23
2019-03-03T06:02:12.291Z,96403.42
2019-03-03T06:03:19.450Z,96400.38
2019-03-03T06:04:26.606Z,96406.38
2019-03-03T06:05:33.750Z,96402.96
2019-03-03T06:06:40.895Z,96401.20
2019-03-03T06:07:48.061Z,96406.38
2019-03-03T06:08:55.217Z,96405.91
2019-03-03T06:10:02.326Z,96412.83
2019-03-03T06:11:09.482Z,96413.30
2019-03-03T06:12:16.580Z,96411.91
2019-03-03T06:13:23.717Z,96402.03
2019-03-03T06:14:30.890Z,96391.24
2019-03-03T06:15:38.037Z,96398.53
2019-03-03T06:16:45.179Z,96400.28
2019-03-03T06:17:52.326Z,96402.96
2019-03-03T06:18:59.484Z,96407.56
2019-03-03T06:20:08.043Z,96406.64
2019-03-03T06:21:15.190Z,96402.30
2019-03-03T06:22:23.311Z,96402.64
2019-03-03T06:23:30.475Z,96409.09
2019-03-03T06:24:37.625Z,96408.27
2019-03-03T06:25:44.644Z,96407.93
2019-03-03T06:26:51.833Z,96410.05
2019-03-03T06:27:58.941Z,96401.81
2019-03-03T06:29:06.085Z,96406.64
2019-03-03T06:30:14.983Z,96401.34
2019-03-03T06:31:22.142Z,96402.77
2019-03-03T06:32:29.317Z,96402.77
2019-03-03T06:33:36.487Z,96404.06
2019-03-03T06:34:44.704Z,96405.22
2019-03-03T06:35:52.840Z,96404.89
2019-03-03T06:37:01.487Z,96398.89
2019-03-03T06:38:08.605Z,96401.81
2019-03-03T06:39:15.777Z,96403.47
2019-03-03T06:40:23.280Z,96401.25
2019-03-03T06:41:30.440Z,96397.73
2019-03-03T06:42:37.461Z,96391.65
2019-03-03T06:43:44.626Z,96389.80
2019-03-03T06:44:51.768Z,96392.74
2019-03-03T06:45:59.535Z,96390.89
2019-03-03T06:47:06.674Z,96389.99
2019-03-03T06:48:13.824Z,96388.94
2019-03-03T06:49:20.999Z,96391.42
2019-03-03T06:50:28.160Z,96376.65
2019-03-03T06:51:35.306Z,96380.42
2019-03-03T06:52:42.455Z,96378.67
2019-03-03T06:53:49.603Z,96382.91
2019-03-03T06:54:56.701Z,96379.40
2019-03-03T06:56:03.845Z,96377.64
2019-03-03T06:57:11.004Z,96381.98
2019-03-03T06:58:18.162Z,96379.03
2019-03-03T06:59:25.348Z,96374.70
2019-03-03T07:00:32.466Z,96373.87
2019-03-03T07:01:39.631Z,96382.81
2019-03-03T07:02:46.779Z,96381.52
2019-03-03T07:03:53.933Z,96381.98
2019-03-03T07:05:01.015Z,96375.52
2019-03-03T07:06:08.179Z,96372.94
2019-03-03T07:07:15.355Z,96375.63
2019-03-03T07:08:22.514Z,96375.98
2019-03-03T07:09:30.269Z,96370.72
2019-03-03T07:10:37.350Z,96377.91
2019-03-03T07:11:44.512Z,96372.64
2019-03-03T07:12:51.677Z,96377.67
2019-03-03T07:13:58.835Z,96377.58
2019-03-03T07:15:06.793Z,96372.41
2019-03-03T07:16:13.963Z,96374.89
2019-03-03T07:17:21.121Z,96376.55
2019-03-03T07:18:28.284Z,96376.45
2019-03-03T07:19:35.448Z,96376.45
2019-03-03T07:20:42.664Z,96369.89
2019-03-03T07:21:49.927Z,96371.55
2019-03-03T07:22:57.011Z,96374.86
2019-03-03T07:24:04.189Z,96378.27
2019-03-03T07:25:12.932Z,96375.22
2019-03-03T07:26:21.057Z,96368.75
2019-03-03T07:27:28.214Z,96361.00
2019-03-03T07:28:35.363Z,96362.77
2019-03-03T07:29:42.524Z,96357.45
2019-03-03T07:30:49.684Z,96364.39
2019-03-03T07:31:56.758Z,96357.92
2019-03-03T07:33:14.939Z,96357.82
2019-03-03T07:34:22.139Z,96357.82
2019-03-03T07:35:29.285Z,96352.89
2019-03-03T07:36:36.443Z,96360.17
2019-03-03T07:37:43.591Z,96357.82
2019-03-03T07:38:50.746Z,96356.33
2019-03-03T07:39:57.916Z,96356.13
2019-03-03T07:41:05.081Z,96354.27
2019-03-03T07:42:12.230Z,96356.28
2019-03-03T07:43:19.378Z,96351.81
2019-03-03T07:44:26.464Z,96350.77
2019-03-03T07:45:33.630Z,96352.80
2019-03-03T07:46:42.138Z,96348.34
2019-03-03T07:47:49.233Z,96351.77
2019-03-03T07:48:56.382Z,96359.78
2019-03-03T07:50:03.543Z,96358.84
2019-03-03T07:51:10.703Z,96357.55
2019-03-03T07:52:17.847Z,96359.08
2019-03-03T07:53:24.995Z,96357.31
2019-03-03T07:54:32.134Z,96355.09
2019-03-03T07:55:39.225Z,96351.47
2019-03-03T07:56:46.362Z,96351.73
2019-03-03T07:57:53.508Z,96344.80
2019-03-03T07:59:00.587Z,96350.70
2019-03-03T08:00:09.977Z,96347.19
2019-03-03T08:01:17.148Z,96353.05
2019-03-03T08:02:24.310Z,96349.53
2019-03-03T08:03:31.467Z,96347.77
2019-03-03T08:04:38.630Z,96355.42
2019-03-03T08:05:45.887Z,96344.51
2019-03-03T08:06:53.040Z,96347.09
2019-03-03T08:08:00.225Z,96345.23
2019-03-03T08:09:09.384Z,96343.94
2019-03-03T08:10:16.794Z,96346.78
2019-03-03T08:11:23.935Z,96344.89
2019-03-03T08:12:31.119Z,96345.25
2019-03-03T08:13:38.301Z,96347.73
2019-03-03T08:14:45.462Z,96349.64
2019-03-03T08:15:52.871Z,96360.81
2019-03-03T08:17:00.097Z,96358.59
2019-03-03T08:18:07.253Z,96361.07
2019-03-03T08:19:14.434Z,96362.73
2019-03-03T08:20:21.768Z,96366.97
2019-03-03T08:21:28.854Z,96352.74
2019-03-03T08:22:36.087Z,96356.48
2019-03-03T08:23:43.243Z,96358.14
2019-03-03T08:24:51.430Z,96362.73
2019-03-03T08:25:58.587Z,96363.93
2019-03-03T08:27:05.752Z,96361.23
2019-03-03T08:28:12.924Z,96368.42
2019-03-03T08:29:20.099Z,96367.39
2019-03-03T08:30:27.338Z,96365.02
2019-03-03T08:31:34.507Z,96361.86
2019-03-03T08:32:41.670Z,96372.00
2019-03-03T08:33:48.825Z,96367.08
2019-03-03T08:34:55.985Z,96361.80
2019-03-03T08:36:03.091Z,96369.09
2019-03-03T08:37:11.338Z,96365.11
2019-03-03T08:38:18.499Z,96370.75
2019-03-03T08:39:25.719Z,96378.05
2019-03-03T08:40:32.902Z,96371.58
2019-03-03T08:41:45.163Z,96368.16
2019-03-03T08:43:04.954Z,96377.33
2019-03-03T08:44:16.535Z,96369.56
2019-03-03T08:45:48.836Z,96379.66
2019-03-03T08:47:10.227Z,96380.13
2019-03-03T08:48:27.336Z,96385.41
2019-03-03T08:49:40.326Z,96375.98
2019-03-03T08:51:06.389Z,96386.23
2019-03-03T08:52:50.555Z,96387.42
2019-03-03T08:54:15.615Z,96387.67
2019-03-03T08:55:41.209Z,96386.23
2019-03-03T08:57:05.650Z,96377.03
2019-03-03T08:58:22.585Z,96391.61
2019-03-03T08:59:53.521Z,96389.70
2019-03-03T09:01:23.193Z,96388.04
2019-03-03T09:02:50.498Z,96386.75
2019-03-03T09:04:10.028Z,96397.09
2019-03-03T09:05:48.047Z,96398.18
2019-03-03T09:07:16.892Z,96393.73
2019-03-03T09:08:44.231Z,96395.13
2019-03-03T09:10:12.763Z,96399.73
2019-03-03T09:11:50.706Z,96390.78
2019-03-03T09:13:04.946Z,96402.99
2019-03-03T09:14:31.316Z,96392.85
2019-03-03T09:16:00.207Z,96392.17
2019-03-03T09:17:15.880Z,96393.63
2019-03-03T09:18:51.047Z,96388.67
2019-03-03T09:20:22.960Z,96391.77
2019-03-03T09:21:51.582Z,96396.84
2019-03-03T09:23:26.902Z,96394.15
2019-03-03T09:24:52.964Z,96387.21
2019-03-03T09:26:12.316Z,96387.67
2019-03-03T09:27:44.435Z,96387.80
2019-03-03T09:29:16.341Z,96389.81
2019-03-03T09:30:33.744Z,96387.48
2019-03-03T09:31:58.466Z,96373.24
2019-03-03T09:33:33.963Z,96386.26
2019-03-03T09:35:12.195Z,96378.59
2019-03-03T09:36:38.811Z,96383.13
2019-03-03T09:37:52.193Z,96382.41
2019-03-03T09:39:14.760Z,96386.29
2019-03-03T09:40:46.623Z,96387.84
2019-03-03T09:42:11.717Z,96384.78
2019-03-03T09:43:34.006Z,96389.95
2019-03-03T09:45:01.376Z,96394.88
2019-03-03T09:46:34.329Z,96381.84
2019-03-03T09:48:01.501Z,96379.89
2019-03-03T09:49:39.686Z,96384.24
2019-03-03T09:50:59.857Z,96391.54
2019-03-03T09:52:16.347Z,96385.53
2019-03-03T09:53:33.167Z,96377.30
2019-03-03T09:54:59.221Z,96381.77
2019-03-03T09:56:31.134Z,96388.39
2019-03-03T09:58:06.427Z,96385.12
2019-03-03T09:59:37.315Z,96378.17
2019-03-03T10:01:06.745Z,96388.06
2019-03-03T10:02:32.906Z,96378.17
2019-03-03T10:04:04.745Z,96378.07
2019-03-03T10:05:38.292Z,96384.91
2019-03-03T10:07:03.598Z,96388.07
2019-03-03T10:08:25.495Z,96386.45
2019-03-03T10:09:51.575Z,96389.41
2019-03-03T10:11:34.558Z,96389.77
2019-03-03T10:12:53.950Z,96380.02
2019-03-03T10:14:14.573Z,96381.06
2019-03-03T10:15:27.829Z,96373.44
2019-03-03T10:16:46.215Z,96372.64
2019-03-03T10:18:16.666Z,96364.04
2019-03-03T10:19:49.985Z,96359.35
2019-03-03T10:21:08.849Z,96364.64
2019-03-03T10:22:38.745Z,96371.83
2019-03-03T10:24:11.133Z,96373.73
2019-03-03T10:25:29.067Z,96360.09
2019-03-03T10:26:49.234Z,96365.16
2019-03-03T10:28:10.868Z,96367.03
2019-03-03T10:29:37.634Z,96371.52
2019-03-03T10:31:09.044Z,96361.98
2019-03-03T10:32:31.451Z,96376.23
2019-03-03T10:34:03.517Z,96363.61
2019-03-03T10:35:30.203Z,96371.85
2019-03-03T10:37:11.597Z,96364.45
2019-03-03T10:38:36.595Z,96366.68
2019-03-03T10:40:01.471Z,96366.43
2019-03-03T10:41:21.599Z,96367.48
2019-03-03T10:42:41.770Z,96372.09
2019-03-03T10:44:03.797Z,96368.53
2019-03-03T10:45:21.352Z,96363.70
2019-03-03T10:46:58.480Z,96366.66
2019-03-03T10:48:30.979Z,96373.02
2019-03-03T10:49:49.484Z,96367.59
2019-03-03T10:51:11.901Z,96365.36
2019-03-03T10:52:41.830Z,96351.83
2019-03-03T10:54:06.719Z,96349.95
2019-03-03T10:55:20.538Z,96350.06
2019-03-03T10:56:46.757Z,96351.83
2019-03-03T10:58:16.474Z,96347.36
2019-03-03T10:59:54.906Z,96348.79
2019-03-03T11:01:31.519Z,96350.44
2019-03-03T11:02:56.232Z,96350.09
2019-03-03T11:04:27.066Z,96346.78
2019-03-03T11:05:53.317Z,96346.20
2019-03-03T11:07:31.542Z,96343.97
2019-03-03T11:08:48.361Z,96356.20
2019-03-03T11:10:19.812Z,96355.84
2019-03-03T11:11:44.617Z,96351.38
2019-03-03T11:13:24.300Z,96344.53
2019-03-03T11:14:53.820Z,96356.78
2019-03-03T11:16:19.092Z,96348.54
2019-03-03T11:17:45.346Z,96351.72
2019-03-03T11:19:03.934Z,96370.43
2019-03-03T11:20:36.483Z,96349.13
2019-03-03T11:22:14.627Z,96348.44
2019-03-03T11:23:31.142Z,96349.97
2019-03-03T11:24:57.269Z,96355.63
2019-03-03T11:26:38.556Z,96351.27
2019-03-03T11:27:57.412Z,96348.06
2019-03-03T11:29:12.446Z,96343.14
2019-03-03T11:30:44.738Z,96342.99
2019-03-03T11:32:16.945Z,96348.89
2019-03-03T11:33:52.289Z,96340.54
2019-03-03T11:35:21.291Z,96345.97
2019-03-03T11:36:56.598Z,96343.37
2019-03-03T11:38:20.670Z,96343.73
2019-03-03T11:39:47.800Z,96347.26
2019-03-03T11:41:10.779Z,96342.44
2019-03-03T11:42:23.296Z,96344.09
2019-03-03T11:43:48.690Z,96345.73
2019-03-03T11:45:16.315Z,96339.98
2019-03-03T11:46:36.828Z,96349.16
2019-03-03T11:48:04.552Z,96337.50
2019-03-03T11:49:28.528Z,96336.56
2019-03-03T11:50:42.476Z,96338.08
2019-03-03T11:52:01.444Z,96362.56
2019-03-03T11:53:19.052Z,96331.83
2019-03-03T11:54:44.988Z,96322.87
2019-03-03T11:56:17.002Z,96317.93
2019-03-03T11:57:30.549Z,96314.52
2019-03-03T11:58:48.986Z,96314.40
2019-03-03T12:00:14.562Z,96323.60
2019-03-03T12:01:39.333Z,96319.09
2019-03-03T12:02:58.860Z,96317.22
2019-03-03T12:04:12.150Z,96327.23
2019-03-03T12:05:44.252Z,96309.70
2019-03-03T12:07:10.377Z,96311.21
2019-03-03T12:08:31.428Z,96311.80
2019-03-03T12:09:59.079Z,96311.58
2019-03-03T12:11:27.903Z,96307.81
2019-03-03T12:12:48.603Z,96308.86
2019-03-03T12:14:20.732Z,96305.33
2019-03-03T12:15:53.005Z,96294.38
2019-03-03T12:17:19.187Z,96295.56
2019-03-03T12:18:54.312Z,96293.19
2019-03-03T12:20:20.497Z,96305.31
2019-03-03T12:21:34.816Z,96287.32
2019-03-03T12:23:17.232Z,96279.91
2019-03-03T12:24:39.229Z,96284.23
2019-03-03T12:26:08.437Z,96276.94
2019-03-03T12:27:33.130Z,96285.19
2019-03-03T12:28:58.112Z,96288.02
2019-03-03T12:30:34.160Z,96277.52
2019-03-03T12:31:50.873Z,96276.57
2019-03-03T12:33:17.106Z,96267.61
2019-03-03T12:34:39.787Z,96265.73
2019-03-03T12:36:00.491Z,96265.03
2019-03-03T12:37:14.414Z,96272.11
2019-03-03T12:38:43.328Z,96272.34
2019-03-03T12:40:21.535Z,96268.78
2019-03-03T12:41:45.579Z,96265.05
2019-03-03T12:43:23.664Z,96256.80
2019-03-03T12:44:48.657Z,96261.52
2019-03-03T12:46:07.710Z,96268.94
2019-03-03T12:47:36.557Z,96277.08
2019-03-03T12:49:05.638Z,96263.48
2019-03-03T12:50:29.330Z,96261.61
2019-03-03T12:51:52.386Z,96257.59
2019-03-03T12:53:09.711Z,96254.41
2019-03-03T12:54:41.633Z,96242.51
2019-03-03T12:56:06.578Z,96250.17
2019-03-03T12:57:30.299Z,96248.41
2019-03-03T12:58:53.329Z,96248.64
2019-03-03T13:00:28.634Z,96251.70
2019-03-03T13:01:54.690Z,96237.91
2019-03-03T13:03:32.813Z,96240.03
2019-03-03T13:04:51.948Z,96242.04
2019-03-03T13:06:08.863Z,96236.85
2019-03-03T13:07:34.816Z,96231.55
2019-03-03T13:09:00.705Z,96238.70
2019-03-03T13:10:27.558Z,96228.25
2019-03-03T13:11:53.621Z,96235.55
2019-03-03T13:13:06.434Z,96239.83
2019-03-03T13:14:38.475Z,96239.47
2019-03-03T13:16:03.380Z,96230.28
2019-03-03T13:17:29.451Z,96227.80
2019-03-03T13:18:55.500Z,96220.50
2019-03-03T13:20:21.671Z,96218.73
2019-03-03T13:21:44.707Z,96224.47
2019-03-03T13:23:04.045Z,96215.87
2019-03-03T13:24:26.164Z,96214.53
2019-03-03T13:25:51.570Z,96204.87
2019-03-03T13:27:12.869Z,96212.30
2019-03-03T13:28:37.695Z,96203.22
2019-03-03T13:30:02.389Z,96204.05
2019-03-03T13:31:29.732Z,96189.23
2019-03-03T13:32:53.050Z,96194.77
2019-03-03T13:34:19.492Z,96189.58
2019-03-03T13:35:51.357Z,96186.52
2019-03-03T13:37:26.218Z,96190.05
2019-03-03T13:38:53.920Z,96181.69
2019-03-03T13:40:32.009Z,96185.45
2019-03-03T13:41:58.081Z,96183.22
2019-03-03T13:43:05.235Z,96184.51
2019-03-03T13:44:12.394Z,96176.93
2019-03-03T13:45:19.656Z,96184.23
2019-03-03T13:46:27.108Z,96176.91
2019-03-03T13:47:34.344Z,96185.13
2019-03-03T13:48:42.508Z,96171.56
2019-03-03T13:49:49.661Z,96165.78
2019-03-03T13:50:56.826Z,96171.20
2019-03-03T13:52:04.056Z,96169.31
2019-03-03T13:53:11.181Z,96174.70
2019-03-03T13:54:18.347Z,96175.87
2019-03-03T13:55:25.707Z,96172.56
2019-03-03T13:56:33.244Z,96170.67
2019-03-03T13:57:40.668Z,96173.97
2019-03-03T13:58:48.023Z,96174.32
2019-03-03T13:59:55.157Z,96171.22
2019-03-03T14:01:02.300Z,96169.92
2019-03-03T14:02:09.833Z,96167.83
2019-03-03T14:03:16.992Z,96158.39
2019-03-03T14:04:24.295Z,96161.47
2019-03-03T14:05:31.551Z,96160.05
2019-03-03T14:06:39.785Z,96159.06
2019-03-03T14:07:47.234Z,96149.98
2019-03-03T14:08:54.401Z,96154.23
2019-03-03T14:10:01.585Z,96161.89
2019-03-03T14:11:08.789Z,96158.00
2019-03-03T14:12:15.877Z,96154.68
2019-03-03T14:13:23.054Z,96164.12
2019-03-03T14:14:30.239Z,96155.27
2019-03-03T14:15:37.646Z,96157.73
2019-03-03T14:16:44.817Z,96160.52
2019-03-03T14:17:51.978Z,96153.21
2019-03-03T14:18:59.152Z,96155.69
2019-03-03T14:20:07.735Z,96150.84
2019-03-03T14:21:14.897Z,96152.48
2019-03-03T14:22:22.077Z,96149.77
2019-03-03T14:23:29.254Z,96156.48
2019-03-03T14:24:37.399Z,96149.88
2019-03-03T14:25:44.559Z,96149.59
2019-03-03T14:26:51.721Z,96152.06
2019-03-03T14:27:58.921Z,96151.12
2019-03-03T14:29:06.049Z,96147.92
2019-03-03T14:30:16.651Z,96150.39
2019-03-03T14:31:23.816Z,96154.77
2019-03-03T14:32:30.990Z,96153.47
2019-03-03T14:33:38.149Z,96143.55
2019-03-03T14:34:45.323Z,96144.85
2019-03-03T14:35:52.476Z,96147.45
2019-03-03T14:37:02.583Z,96142.73
2019-03-03T14:38:09.732Z,96141.43
2019-03-03T14:39:17.045Z,96138.02
2019-03-03T14:40:24.242Z,96136.23
2019-03-03T14:41:31.413Z,96134.81
2019-03-03T14:42:38.576Z,96125.73
2019-03-03T14:43:45.739Z,96130.31
2019-03-03T14:44:52.912Z,96131.62
2019-03-03T14:46:00.278Z,96124.53
2019-03-03T14:47:07.434Z,96129.25
2019-03-03T14:48:14.666Z,96125.20
2019-03-03T14:49:21.753Z,96131.56
2019-03-03T14:50:30.616Z,96126.72
2019-03-03T14:51:37.782Z,96128.36
2019-03-03T14:52:46.022Z,96126.23
2019-03-03T14:53:53.196Z,96123.99
2019-03-03T14:55:00.352Z,96125.29
2019-03-03T14:56:07.520Z,96123.17